Fair Play, Missouri
Current Conditions -  °F | °C
As of 7:52 AM on Thursday 27 Nov 2014 (Local Time) from KSGF Reporting Station
Overcast Overcast  
Wind Chill: 22°   Ceiling: 1400
Heat Index: 30°   Visibility: 7mi
Dew Point: 23°   Wind: 8mph
Humidity: 75%   Direction: 360°N
Pressure: 30.46"   Gusts: NA
Location:  37.63°N, 93.57°W
Report Text: KSGF 271352Z AUTO 36007KT 7SM OVC014 M01/M05 A3046 RMK AO2 SLP326 T10111050
Loading
Personal Weather Stations






























Interactive Weather Map New forecast layout! Learn more

10-Day Weather Forecast

Advertisements
Track Severe Weather on mobile